ESUD

Details ICAO ESUD (SQO)
Name STORUMAN
Region Sweden
Timezone Europe/Stockholm (UTC+1.0)
Plans Departing 0
Arriving 1
Stats Elevation 915 ft / 279 m (AMSL)
Location 64.960893° 17.696693°
Runways 1
Magnetic Variation 7.008° E
Sunrise 2017-12-19 08:58:55 UTC / 2017-12-19 09:58:55 Local
Sunset 2017-12-19 12:36:21 UTC / 2017-12-19 13:36:21 Local
Advertisement - Login to hide

Runways

ID Width Length Bearing (true) Bearing (mag) Surface Threshold Offset Overrun Length
15 131 ft / 40 m 7,487 ft / 2,282 m 151.36° 144.35° Asphalt 0 ft / 0 m 656 ft / 200 m
33 131 ft / 40 m 7,487 ft / 2,282 m 331.38° 324.37° Asphalt 0 ft / 0 m 0 ft / 0 m

Approach Navaids

Runway Type Ident Frequency Range Bearing (true) Bearing (mag) Slope Elevation
33 Localiser IPD 110.30 MHz 18 nm / 33 km 331.40° 324.40° - 915 ft / 279 m (AMSL)
33 Glidescope IPD 110.30 MHz 10 nm / 19 km 331.37° 324.36° 3.20° 915 ft / 279 m (AMSL)

Map

Weather


0- 5 10 15 20 25 30 35+ Temperature / ° C

Clouds and Precipitation
Forecast for 2017-12-19 00:00 UTC. Updated an hour ago

Ground ~20,000 ft ~40,000 ft Winds

METAR

ESUD 182220Z AUTO 00000KT 9999 SCT011/// M08/M09 Q1015

TAF

Not found

Frequencies

Tower 133.80 MHz AFIS
Warning: Do not use this data for real-world aviation or navigation. No guarantee of current accuracy is given.